createdAt,value
2023-04-20T00:01:28.349Z,7.86
2023-04-20T00:03:55.049Z,7.78
2023-04-20T00:06:21.859Z,7.70
2023-04-20T00:08:48.656Z,7.73
2023-04-20T00:11:15.228Z,7.62
2023-04-20T00:13:41.788Z,7.66
2023-04-20T00:16:09.432Z,7.61
2023-04-20T00:18:36.110Z,7.56
2023-04-20T00:21:03.223Z,7.57
2023-04-20T00:23:29.848Z,7.55
2023-04-20T00:25:56.497Z,7.52
2023-04-20T00:28:23.190Z,7.50
2023-04-20T00:30:49.826Z,7.44
2023-04-20T00:33:16.790Z,7.47
2023-04-20T00:35:43.398Z,7.43
2023-04-20T00:38:09.941Z,7.35
2023-04-20T00:40:36.517Z,7.29
2023-04-20T00:43:13.040Z,7.28
2023-04-20T00:45:39.908Z,7.20
2023-04-20T00:48:07.412Z,7.20
2023-04-20T00:50:35.919Z,7.18
2023-04-20T00:53:03.171Z,7.14
2023-04-20T00:55:30.689Z,7.14
2023-04-20T00:57:58.424Z,7.11
2023-04-20T01:00:26.429Z,7.04
2023-04-20T01:02:53.152Z,7.07
2023-04-20T01:05:20.424Z,7.10
2023-04-20T01:07:47.076Z,7.09
2023-04-20T01:10:13.659Z,7.12
2023-04-20T01:12:40.493Z,7.07
2023-04-20T01:15:07.593Z,7.16
2023-04-20T01:17:36.729Z,7.18
2023-04-20T01:20:04.212Z,7.21
2023-04-20T01:22:30.766Z,7.18
2023-04-20T01:24:57.265Z,7.21
2023-04-20T01:27:23.843Z,7.20
2023-04-20T01:29:50.369Z,7.24
2023-04-20T01:32:16.877Z,7.23
2023-04-20T01:34:43.397Z,7.23
2023-04-20T01:37:11.517Z,7.15
2023-04-20T01:39:40.134Z,7.13
2023-04-20T01:42:07.169Z,7.14
2023-04-20T01:44:33.961Z,7.14
2023-04-20T01:47:00.656Z,7.18
2023-04-20T01:49:27.356Z,7.18
2023-04-20T01:51:54.076Z,7.17
2023-04-20T01:54:20.746Z,7.12
2023-04-20T01:56:47.302Z,7.18
2023-04-20T01:59:13.890Z,7.14
2023-04-20T02:01:40.489Z,7.16
2023-04-20T02:04:07.095Z,7.18
2023-04-20T02:06:33.790Z,7.20
2023-04-20T02:09:00.423Z,7.21
2023-04-20T02:11:26.985Z,7.29
2023-04-20T02:13:53.518Z,7.37
2023-04-20T02:16:21.719Z,7.40
2023-04-20T02:18:48.281Z,7.48
2023-04-20T02:21:15.001Z,7.53
2023-04-20T02:23:41.617Z,7.54
2023-04-20T02:26:08.232Z,7.58
2023-04-20T02:28:34.755Z,7.64
2023-04-20T02:31:01.374Z,7.69
2023-04-20T02:33:27.990Z,7.69
2023-04-20T02:35:54.576Z,7.68
2023-04-20T02:38:21.196Z,7.69
2023-04-20T02:40:47.877Z,7.65
2023-04-20T02:43:14.449Z,7.67
2023-04-20T02:45:41.390Z,7.68
2023-04-20T02:48:08.024Z,7.72
2023-04-20T02:50:35.209Z,7.73
2023-04-20T02:53:01.769Z,7.78
2023-04-20T02:55:28.602Z,7.79
2023-04-20T02:57:55.150Z,7.82
2023-04-20T03:00:21.773Z,7.83
2023-04-20T03:02:48.413Z,7.90
2023-04-20T03:05:15.172Z,7.92
2023-04-20T03:07:41.733Z,7.97
2023-04-20T03:10:09.149Z,8.04
2023-04-20T03:12:36.014Z,8.05
2023-04-20T03:15:06.193Z,8.11
2023-04-20T03:17:32.771Z,8.10
2023-04-20T03:19:59.377Z,8.17
2023-04-20T03:22:26.043Z,8.17
2023-04-20T03:24:53.560Z,8.24
2023-04-20T03:27:20.917Z,8.27
2023-04-20T03:29:48.877Z,8.33
2023-04-20T03:32:15.601Z,8.36
2023-04-20T03:34:42.354Z,8.40
2023-04-20T03:37:08.925Z,8.42
2023-04-20T03:39:35.579Z,8.46
2023-04-20T03:42:02.104Z,8.48
2023-04-20T03:44:28.643Z,8.44
2023-04-20T03:46:55.157Z,8.49
2023-04-20T03:49:25.213Z,8.55
2023-04-20T03:51:51.936Z,8.51
2023-04-20T03:54:18.482Z,8.58
2023-04-20T03:56:46.018Z,8.58
2023-04-20T03:59:12.655Z,8.58
2023-04-20T04:01:39.265Z,8.60
2023-04-20T04:04:06.491Z,8.60
2023-04-20T04:06:33.482Z,8.58
2023-04-20T04:09:00.208Z,8.61
2023-04-20T04:11:29.989Z,8.58
2023-04-20T04:13:58.057Z,8.64
2023-04-20T04:16:25.023Z,8.63
2023-04-20T04:18:51.605Z,8.61
2023-04-20T04:21:18.198Z,8.65
2023-04-20T04:23:44.825Z,8.65
2023-04-20T04:26:12.120Z,8.66
2023-04-20T04:28:38.794Z,8.61
2023-04-20T04:31:08.263Z,8.64
2023-04-20T04:33:34.896Z,8.67
2023-04-20T04:36:01.734Z,8.69
2023-04-20T04:38:28.752Z,8.67
2023-04-20T04:40:56.391Z,8.66
2023-04-20T04:43:24.271Z,8.63
2023-04-20T04:45:50.849Z,8.64
2023-04-20T04:48:17.492Z,8.70
2023-04-20T04:50:44.041Z,8.70
2023-04-20T04:53:10.601Z,8.69
2023-04-20T04:55:37.223Z,8.69
2023-04-20T04:58:03.765Z,8.69
2023-04-20T05:00:31.425Z,8.72
2023-04-20T05:02:58.213Z,8.75
2023-04-20T05:05:25.510Z,8.78
2023-04-20T05:07:52.582Z,8.78
2023-04-20T05:10:19.291Z,8.75
2023-04-20T05:12:46.457Z,8.69
2023-04-20T05:15:12.989Z,8.65
2023-04-20T05:17:39.809Z,8.66
2023-04-20T05:20:07.867Z,8.69
2023-04-20T05:22:34.448Z,8.70
2023-04-20T05:25:01.074Z,8.68
2023-04-20T05:27:27.755Z,8.68
2023-04-20T05:29:55.649Z,8.69
2023-04-20T05:32:28.328Z,8.65
2023-04-20T05:38:25.941Z,8.67
2023-04-20T05:40:53.282Z,8.71
2023-04-20T05:43:20.663Z,8.69
2023-04-20T05:45:50.388Z,8.77
2023-04-20T05:48:49.694Z,8.81
2023-04-20T05:51:16.799Z,8.77
2023-04-20T05:53:45.097Z,8.76
2023-04-20T05:56:11.757Z,8.81
2023-04-20T05:58:38.512Z,8.81
2023-04-20T06:01:05.287Z,8.84
2023-04-20T06:03:31.952Z,8.83
2023-04-20T06:05:59.773Z,8.84
2023-04-20T06:08:28.784Z,8.85
2023-04-20T06:10:59.088Z,8.91
2023-04-20T06:13:26.207Z,8.92
2023-04-20T06:15:54.125Z,8.97
2023-04-20T06:18:20.806Z,9.01
2023-04-20T06:20:47.355Z,8.99
2023-04-20T06:23:14.328Z,9.06
2023-04-20T06:25:41.031Z,9.05
2023-04-20T06:28:07.951Z,9.07
2023-04-20T06:30:34.732Z,9.08
2023-04-20T06:33:01.955Z,9.04
2023-04-20T06:35:28.876Z,8.95
2023-04-20T06:37:58.322Z,8.95
2023-04-20T06:40:31.169Z,9.01
2023-04-20T06:43:00.807Z,8.97
2023-04-20T06:45:27.458Z,8.92
2023-04-20T06:47:54.397Z,8.95
2023-04-20T06:50:24.779Z,8.89
2023-04-20T06:52:51.540Z,8.90
2023-04-20T06:55:18.202Z,8.89
2023-04-20T06:57:45.126Z,8.87
2023-04-20T07:00:20.244Z,8.85
2023-04-20T07:03:07.330Z,8.84
2023-04-20T07:05:34.140Z,8.79
2023-04-20T07:08:03.264Z,8.76
2023-04-20T07:10:30.309Z,8.75
2023-04-20T07:12:57.607Z,8.70
2023-04-20T07:15:24.598Z,8.71
2023-04-20T07:17:51.763Z,8.68
2023-04-20T07:20:18.415Z,8.67
2023-04-20T07:22:45.113Z,8.66
2023-04-20T07:25:11.819Z,8.68
2023-04-20T07:27:40.437Z,8.69
2023-04-20T07:30:09.278Z,8.72
2023-04-20T07:32:37.352Z,8.71
2023-04-20T07:35:04.583Z,8.67
2023-04-20T07:37:32.341Z,8.70
2023-04-20T07:39:58.846Z,8.69
2023-04-20T07:42:25.479Z,8.64
2023-04-20T07:44:54.518Z,8.60
2023-04-20T07:47:21.181Z,8.54
2023-04-20T07:49:47.751Z,8.48
2023-04-20T07:52:17.282Z,8.46
2023-04-20T07:54:47.113Z,8.36
2023-04-20T07:57:13.692Z,8.40
2023-04-20T07:59:40.768Z,8.39
2023-04-20T08:02:09.010Z,8.35
2023-04-20T08:04:38.288Z,8.32
2023-04-20T08:07:05.120Z,8.34
2023-04-20T08:09:31.693Z,8.35
2023-04-20T08:11:58.458Z,8.37
2023-04-20T08:14:24.978Z,8.41
2023-04-20T08:16:51.508Z,8.46
2023-04-20T08:19:18.091Z,8.49
2023-04-20T08:21:45.007Z,8.54
2023-04-20T08:24:12.209Z,8.60
2023-04-20T08:26:39.341Z,8.72
2023-04-20T08:29:06.396Z,8.92
2023-04-20T08:31:33.006Z,9.22
2023-04-20T08:33:59.554Z,9.55
2023-04-20T08:36:26.760Z,9.78
2023-04-20T08:39:09.337Z,9.91
2023-04-20T08:41:36.463Z,9.97
2023-04-20T08:44:03.686Z,9.81
2023-04-20T08:46:31.310Z,9.77
2023-04-20T08:49:01.617Z,9.76
2023-04-20T08:51:29.046Z,9.72
2023-04-20T08:53:56.618Z,9.71
2023-04-20T08:56:37.777Z,9.67
2023-04-20T08:59:10.359Z,9.69
2023-04-20T09:01:39.070Z,9.75
2023-04-20T09:04:21.245Z,9.81
2023-04-20T09:06:51.371Z,9.89
2023-04-20T09:09:23.679Z,9.98
2023-04-20T09:12:08.932Z,10.10
2023-04-20T09:14:47.074Z,10.21
2023-04-20T09:17:18.150Z,10.32
2023-04-20T09:19:46.109Z,10.64
2023-04-20T09:22:12.814Z,10.76
2023-04-20T09:24:41.444Z,10.96
2023-04-20T09:27:19.070Z,11.03
2023-04-20T09:29:57.866Z,11.16
2023-04-20T09:32:26.231Z,11.29
2023-04-20T09:34:52.789Z,11.54
2023-04-20T09:37:19.779Z,11.80
2023-04-20T09:39:46.750Z,11.95
2023-04-20T09:42:17.144Z,11.86
2023-04-20T09:44:44.567Z,11.59
2023-04-20T09:47:18.969Z,11.50
2023-04-20T09:49:48.897Z,11.29
2023-04-20T09:52:19.372Z,11.27
2023-04-20T09:54:46.305Z,11.21
2023-04-20T09:57:14.304Z,11.15
2023-04-20T09:59:51.961Z,11.12
2023-04-20T10:02:23.313Z,11.12
2023-04-20T10:05:01.767Z,11.13
2023-04-20T10:07:31.754Z,11.10
2023-04-20T10:10:07.464Z,11.03
2023-04-20T10:12:36.900Z,11.03
2023-04-20T10:15:03.642Z,10.97
2023-04-20T10:17:33.819Z,10.98
2023-04-20T10:20:00.609Z,10.96
2023-04-20T10:22:33.947Z,10.98
2023-04-20T10:25:14.022Z,10.90
2023-04-20T10:27:40.654Z,10.91
2023-04-20T10:30:11.028Z,10.90
2023-04-20T10:32:37.765Z,11.05
2023-04-20T10:35:07.616Z,11.22
2023-04-20T10:37:35.265Z,11.27
2023-04-20T10:40:07.444Z,11.20
2023-04-20T10:42:45.191Z,11.15
2023-04-20T10:45:12.370Z,11.08
2023-04-20T10:47:40.743Z,10.97
2023-04-20T10:50:12.788Z,10.91
2023-04-20T10:52:42.123Z,10.88
2023-04-20T10:55:23.568Z,10.89
2023-04-20T10:57:51.111Z,10.87
2023-04-20T11:00:20.209Z,10.90
2023-04-20T11:02:51.941Z,10.95
2023-04-20T11:05:20.284Z,11.04
2023-04-20T11:07:58.899Z,11.10
2023-04-20T11:10:41.157Z,11.45
2023-04-20T11:13:20.073Z,11.82
2023-04-20T11:15:46.887Z,12.11
2023-04-20T11:18:13.526Z,12.21
2023-04-20T11:20:56.363Z,12.27
2023-04-20T11:23:25.336Z,12.27
2023-04-20T11:25:56.597Z,12.18
2023-04-20T11:28:23.663Z,12.13
2023-04-20T11:30:50.894Z,12.06
2023-04-20T11:33:28.464Z,12.06
2023-04-20T11:35:57.949Z,12.06
2023-04-20T11:38:33.160Z,12.12
2023-04-20T11:41:04.596Z,12.06
2023-04-20T11:43:32.134Z,12.03
2023-04-20T11:45:59.725Z,12.11
2023-04-20T11:48:27.472Z,12.05
2023-04-20T11:50:54.004Z,11.92
2023-04-20T11:53:20.995Z,11.90
2023-04-20T11:55:47.588Z,11.86
2023-04-20T11:58:14.062Z,11.87
2023-04-20T12:00:40.912Z,11.81
2023-04-20T12:03:08.687Z,11.66
2023-04-20T12:05:35.598Z,11.62
2023-04-20T12:08:02.477Z,11.52
2023-04-20T12:10:29.124Z,11.50
2023-04-20T12:12:56.757Z,11.47
2023-04-20T12:15:25.666Z,11.36
2023-04-20T12:17:52.993Z,11.26
2023-04-20T12:20:20.109Z,11.23
2023-04-20T12:22:46.664Z,11.15
2023-04-20T12:25:13.938Z,11.04
2023-04-20T12:27:42.603Z,11.04
2023-04-20T12:30:09.644Z,11.03
2023-04-20T12:32:36.326Z,11.07
2023-04-20T12:35:03.009Z,11.19
2023-04-20T12:37:29.550Z,11.31
2023-04-20T12:39:57.486Z,11.39
2023-04-20T12:42:24.002Z,11.48
2023-04-20T12:44:53.790Z,11.59
2023-04-20T12:47:20.558Z,11.63
2023-04-20T12:49:47.195Z,11.67
2023-04-20T12:52:16.739Z,11.75
2023-04-20T12:54:44.224Z,11.83
2023-04-20T12:57:11.831Z,11.92
2023-04-20T12:59:38.359Z,11.94
2023-04-20T13:02:05.045Z,11.93
2023-04-20T13:04:31.801Z,11.89
2023-04-20T13:06:59.132Z,11.86
2023-04-20T13:09:28.067Z,11.82
2023-04-20T13:11:54.728Z,11.75
2023-04-20T13:14:21.724Z,11.65
2023-04-20T13:16:48.564Z,11.52
2023-04-20T13:19:15.604Z,11.55
2023-04-20T13:21:42.164Z,11.56
2023-04-20T13:24:09.149Z,11.57
2023-04-20T13:26:36.334Z,11.64
2023-04-20T13:29:06.155Z,11.75
2023-04-20T13:31:33.546Z,11.83
2023-04-20T13:34:00.233Z,11.95
2023-04-20T13:36:28.155Z,12.10
2023-04-20T13:38:55.780Z,12.20
2023-04-20T13:41:25.708Z,12.28
2023-04-20T13:43:52.322Z,12.30
2023-04-20T13:46:20.035Z,12.23
2023-04-20T13:48:46.756Z,12.18
2023-04-20T13:51:13.320Z,12.12
2023-04-20T13:53:39.910Z,12.13
2023-04-20T13:56:06.695Z,12.19
2023-04-20T13:58:33.352Z,12.16
2023-04-20T14:00:59.951Z,12.17
2023-04-20T14:03:27.009Z,12.13
2023-04-20T14:05:53.762Z,12.13
2023-04-20T14:08:20.736Z,12.16
2023-04-20T14:10:47.539Z,12.19
2023-04-20T14:13:14.225Z,12.20
2023-04-20T14:15:41.638Z,12.22
2023-04-20T14:18:08.318Z,12.22
2023-04-20T14:20:35.117Z,12.17
2023-04-20T14:23:01.738Z,12.13
2023-04-20T14:25:28.396Z,12.16
2023-04-20T14:27:54.987Z,12.16
2023-04-20T14:30:21.638Z,12.22
2023-04-20T14:32:59.347Z,12.19
2023-04-20T14:35:28.544Z,12.21
2023-04-20T14:37:55.115Z,12.22
2023-04-20T14:40:22.558Z,12.24
2023-04-20T14:42:49.166Z,12.28
2023-04-20T14:45:15.800Z,12.32
2023-04-20T14:47:42.396Z,12.46
2023-04-20T14:50:09.875Z,12.59
2023-04-20T14:52:36.597Z,12.75
2023-04-20T14:55:04.074Z,12.88
2023-04-20T14:57:31.536Z,12.83
2023-04-20T14:59:58.165Z,12.76
2023-04-20T15:02:25.131Z,12.66
2023-04-20T15:04:52.026Z,12.69
2023-04-20T15:07:19.428Z,12.69
2023-04-20T15:09:46.293Z,12.70
2023-04-20T15:12:12.819Z,12.66
2023-04-20T15:14:39.375Z,12.70
2023-04-20T15:17:05.986Z,12.78
2023-04-20T15:19:32.591Z,12.82
2023-04-20T15:21:59.078Z,12.84
2023-04-20T15:24:25.755Z,12.84
2023-04-20T15:26:52.433Z,12.86
2023-04-20T15:29:18.991Z,12.86
2023-04-20T15:31:49.407Z,12.89
2023-04-20T15:34:17.247Z,12.88
2023-04-20T15:36:44.286Z,12.85
2023-04-20T15:39:10.944Z,12.83
2023-04-20T15:41:37.541Z,12.78
2023-04-20T15:44:04.151Z,12.76
2023-04-20T15:46:31.008Z,12.69
2023-04-20T15:48:57.662Z,12.60
2023-04-20T15:51:24.866Z,12.58
2023-04-20T15:53:51.713Z,12.48
2023-04-20T15:56:22.478Z,12.46
2023-04-20T15:58:50.003Z,12.45
2023-04-20T16:01:20.277Z,12.47
2023-04-20T16:03:48.226Z,12.53
2023-04-20T16:06:15.144Z,12.58
2023-04-20T16:08:41.766Z,12.70
2023-04-20T16:11:08.424Z,12.79
2023-04-20T16:13:36.333Z,12.91
2023-04-20T16:16:02.943Z,12.91
2023-04-20T16:18:29.814Z,12.92
2023-04-20T16:20:56.465Z,12.87
2023-04-20T16:23:23.041Z,12.79
2023-04-20T16:25:49.565Z,12.70
2023-04-20T16:28:16.342Z,12.61
2023-04-20T16:30:43.212Z,12.49
2023-04-20T16:33:09.876Z,12.43
2023-04-20T16:35:36.509Z,12.47
2023-04-20T16:38:03.070Z,12.51
2023-04-20T16:40:29.657Z,12.58
2023-04-20T16:42:56.168Z,12.67
2023-04-20T16:45:22.939Z,12.75
2023-04-20T16:47:51.074Z,12.85
2023-04-20T16:50:20.731Z,12.85
2023-04-20T16:52:47.478Z,12.86
2023-04-20T16:55:17.040Z,12.78
2023-04-20T16:57:43.733Z,12.69
2023-04-20T17:00:10.965Z,12.65
2023-04-20T17:02:38.167Z,12.56
2023-04-20T17:05:07.157Z,12.55
2023-04-20T17:07:33.714Z,12.49
2023-04-20T17:10:00.325Z,12.40
2023-04-20T17:12:26.926Z,12.38
2023-04-20T17:14:56.888Z,12.33
2023-04-20T17:17:23.521Z,12.29
2023-04-20T17:19:50.235Z,12.26
2023-04-20T17:22:16.837Z,12.24
2023-04-20T17:24:43.474Z,12.22
2023-04-20T17:27:10.007Z,12.17
2023-04-20T17:29:38.381Z,12.14
2023-04-20T17:32:05.857Z,12.13
2023-04-20T17:34:32.786Z,12.10
2023-04-20T17:36:59.373Z,12.08
2023-04-20T17:39:26.621Z,12.07
2023-04-20T17:41:53.233Z,12.06
2023-04-20T17:44:20.318Z,12.03
2023-04-20T17:46:53.527Z,12.00
2023-04-20T17:49:20.292Z,11.96
2023-04-20T17:51:46.838Z,11.97
2023-04-20T17:54:15.493Z,11.96
2023-04-20T17:56:42.084Z,11.92
2023-04-20T17:59:09.243Z,11.90
2023-04-20T18:01:35.957Z,11.93
2023-04-20T18:04:03.637Z,11.94
2023-04-20T18:06:33.154Z,11.95
2023-04-20T18:09:00.255Z,11.94
2023-04-20T18:11:27.196Z,11.91
2023-04-20T18:13:53.805Z,11.93
2023-04-20T18:16:20.529Z,11.91
2023-04-20T18:18:47.141Z,11.90
2023-04-20T18:21:14.315Z,11.87
2023-04-20T18:23:41.048Z,11.85
2023-04-20T18:26:10.212Z,11.84
2023-04-20T18:28:36.761Z,11.82
2023-04-20T18:31:03.326Z,11.80
2023-04-20T18:33:29.933Z,11.79
2023-04-20T18:35:56.487Z,11.77
2023-04-20T18:38:23.041Z,11.75
2023-04-20T18:40:49.551Z,11.74
2023-04-20T18:43:16.167Z,11.70
2023-04-20T18:45:42.681Z,11.70
2023-04-20T18:48:09.288Z,11.68
2023-04-20T18:50:36.100Z,11.65
2023-04-20T18:53:04.918Z,11.67
2023-04-20T18:55:31.904Z,11.65
2023-04-20T18:57:58.880Z,11.63
2023-04-20T19:00:25.798Z,11.61
2023-04-20T19:02:52.581Z,11.59
2023-04-20T19:05:19.174Z,11.58
2023-04-20T19:07:46.933Z,11.55
2023-04-20T19:10:13.560Z,11.54
2023-04-20T19:12:40.387Z,11.51
2023-04-20T19:15:11.489Z,11.49
2023-04-20T19:17:38.190Z,11.46
2023-04-20T19:20:05.289Z,11.42
2023-04-20T19:22:31.889Z,11.40
2023-04-20T19:24:58.441Z,11.38
2023-04-20T19:27:25.017Z,11.36
2023-04-20T19:29:51.815Z,11.31
2023-04-20T19:32:18.861Z,11.27
2023-04-20T19:34:45.479Z,11.24
2023-04-20T19:37:12.239Z,11.19
2023-04-20T19:39:38.821Z,11.18
2023-04-20T19:42:05.389Z,11.11
2023-04-20T19:44:31.969Z,11.08
2023-04-20T19:46:58.600Z,11.05
2023-04-20T19:49:25.334Z,11.04
2023-04-20T19:51:51.963Z,11.02
2023-04-20T19:54:18.662Z,10.98
2023-04-20T19:56:45.182Z,10.96
2023-04-20T19:59:11.764Z,10.93
2023-04-20T20:01:38.315Z,10.89
2023-04-20T20:04:05.039Z,10.85
2023-04-20T20:06:32.372Z,10.84
2023-04-20T20:09:00.088Z,10.81
2023-04-20T20:11:26.899Z,10.79
2023-04-20T20:13:53.484Z,10.77
2023-04-20T20:16:20.279Z,10.73
2023-04-20T20:18:48.262Z,10.72
2023-04-20T20:21:17.537Z,10.65
2023-04-20T20:23:44.114Z,10.60
2023-04-20T20:26:10.637Z,10.59
2023-04-20T20:28:37.177Z,10.59
2023-04-20T20:31:03.786Z,10.56
2023-04-20T20:33:30.306Z,10.57
2023-04-20T20:35:56.844Z,10.56
2023-04-20T20:38:23.427Z,10.57
2023-04-20T20:40:53.376Z,10.54
2023-04-20T20:43:19.986Z,10.49
2023-04-20T20:45:47.405Z,10.49
2023-04-20T20:48:14.004Z,10.48
2023-04-20T20:50:40.925Z,10.45
2023-04-20T20:53:07.636Z,10.42
2023-04-20T20:55:34.481Z,10.41
2023-04-20T20:58:01.022Z,10.39
2023-04-20T21:00:27.661Z,10.37
2023-04-20T21:02:54.485Z,10.31
2023-04-20T21:05:22.823Z,10.28
2023-04-20T21:07:49.752Z,10.27
2023-04-20T21:10:19.502Z,10.26
2023-04-20T21:12:46.072Z,10.23
2023-04-20T21:15:12.662Z,10.22
2023-04-20T21:17:39.269Z,10.22
2023-04-20T21:20:09.004Z,10.21
2023-04-20T21:22:35.612Z,10.19
2023-04-20T21:25:02.134Z,10.14
2023-04-20T21:27:28.643Z,10.13
2023-04-20T21:29:55.256Z,10.13
2023-04-20T21:32:21.968Z,10.11
2023-04-20T21:34:48.612Z,10.11
2023-04-20T21:37:15.139Z,10.09
2023-04-20T21:39:41.641Z,10.09
2023-04-20T21:42:08.167Z,10.09
2023-04-20T21:44:34.705Z,10.06
2023-04-20T21:47:02.531Z,10.05
2023-04-20T21:49:29.566Z,10.02
2023-04-20T21:51:56.057Z,10.00
2023-04-20T21:54:22.579Z,9.98
2023-04-20T21:56:49.096Z,9.98
2023-04-20T21:59:15.740Z,9.98
2023-04-20T22:01:42.377Z,9.97
2023-04-20T22:04:10.146Z,9.93
2023-04-20T22:06:36.921Z,9.92
2023-04-20T22:09:04.496Z,9.91
2023-04-20T22:11:31.006Z,9.91
2023-04-20T22:13:57.605Z,9.91
2023-04-20T22:16:24.318Z,9.85
2023-04-20T22:18:51.009Z,9.86
2023-04-20T22:21:17.519Z,9.87
2023-04-20T22:23:44.057Z,9.87
2023-04-20T22:26:10.591Z,9.83
2023-04-20T22:28:37.103Z,9.85
2023-04-20T22:31:03.661Z,9.85
2023-04-20T22:33:30.231Z,9.85
2023-04-20T22:35:56.736Z,9.82
2023-04-20T22:38:23.372Z,9.84
2023-04-20T22:40:49.937Z,9.79
2023-04-20T22:43:16.479Z,9.76
2023-04-20T22:45:43.064Z,9.78
2023-04-20T22:48:09.710Z,9.76
2023-04-20T22:50:38.350Z,9.76
2023-04-20T22:53:04.849Z,9.72
2023-04-20T22:55:31.377Z,9.73
2023-04-20T22:57:57.903Z,9.73
2023-04-20T23:00:24.509Z,9.71
2023-04-20T23:02:51.429Z,9.71
2023-04-20T23:05:20.178Z,9.67
2023-04-20T23:07:46.916Z,9.70
2023-04-20T23:10:16.082Z,9.69
2023-04-20T23:12:44.577Z,9.68
2023-04-20T23:15:12.028Z,9.68
2023-04-20T23:17:38.965Z,9.66
2023-04-20T23:20:13.648Z,9.66
2023-04-20T23:22:40.711Z,9.66
2023-04-20T23:25:07.748Z,9.66
2023-04-20T23:27:34.259Z,9.66
2023-04-20T23:30:00.913Z,9.66
2023-04-20T23:32:27.472Z,9.64
2023-04-20T23:34:54.050Z,9.63
2023-04-20T23:37:20.628Z,9.65
2023-04-20T23:39:47.170Z,9.62
2023-04-20T23:42:14.240Z,9.62
2023-04-20T23:44:40.827Z,9.62
2023-04-20T23:47:07.396Z,9.61
2023-04-20T23:49:33.947Z,9.61
2023-04-20T23:52:01.147Z,9.61
2023-04-20T23:54:27.694Z,9.62
2023-04-20T23:56:55.576Z,9.61
2023-04-20T23:59:22.148Z,9.61
